TimeCST,TemperatureF,Dew PointF,Humidity,Sea Level PressureIn,VisibilityMPH,Wind Direction,Wind SpeedMPH,Gust SpeedMPH,PrecipitationIn,Events,Conditions,WindDirDegrees,DateUTC
12:08 AM,36.0,20.1,53,-9999,-9999.0,WNW,9.2,-,N/A,,Unknown,290,2013-02-02 06:08:00
12:28 AM,35.1,19.0,52,-9999,-9999.0,WNW,9.2,-,N/A,,Unknown,300,2013-02-02 06:28:00
12:48 AM,33.1,19.0,56,-9999,-9999.0,NW,6.9,-,N/A,,Unknown,310,2013-02-02 06:48:00
1:08 AM,30.9,18.1,59,-9999,-9999.0,NW,6.9,-,N/A,,Unknown,320,2013-02-02 07:08:00
1:28 AM,30.9,20.1,64,-9999,-9999.0,NW,4.6,-,N/A,,Unknown,320,2013-02-02 07:28:00
1:48 AM,30.9,19.0,61,-9999,-9999.0,NW,4.6,-,N/A,,Unknown,320,2013-02-02 07:48:00
2:08 AM,30.9,18.1,59,-9999,-9999.0,NNW,5.8,-,N/A,,Unknown,330,2013-02-02 08:08:00
2:28 AM,32.0,21.0,64,-9999,-9999.0,NW,5.8,-,N/A,,Unknown,320,2013-02-02 08:28:00
2:48 AM,30.9,21.0,67,-9999,-9999.0,WNW,4.6,-,N/A,,Unknown,300,2013-02-02 08:48:00
3:08 AM,30.0,21.0,69,-9999,-9999.0,WNW,4.6,-,N/A,,Unknown,290,2013-02-02 09:08:00
3:28 AM,30.9,21.0,67,-9999,-9999.0,WNW,5.8,-,N/A,,Unknown,290,2013-02-02 09:28:00
3:48 AM,32.0,23.0,69,-9999,-9999.0,WNW,5.8,-,N/A,,Unknown,290,2013-02-02 09:48:00
4:08 AM,32.0,23.0,69,-9999,-9999.0,WNW,6.9,-,N/A,,Unknown,290,2013-02-02 10:08:00
4:28 AM,32.0,22.1,67,-9999,-9999.0,WNW,6.9,-,N/A,,Unknown,290,2013-02-02 10:28:00
4:48 AM,32.0,22.1,67,-9999,-9999.0,WNW,6.9,-,N/A,,Unknown,290,2013-02-02 10:48:00
5:08 AM,30.9,22.1,70,-9999,-9999.0,WNW,8.1,-,N/A,,Unknown,290,2013-02-02 11:08:00
5:28 AM,30.0,22.1,72,-9999,-9999.0,WNW,6.9,-,N/A,,Unknown,290,2013-02-02 11:28:00
5:48 AM,30.9,23.0,72,-9999,-9999.0,WNW,4.6,-,N/A,,Unknown,290,2013-02-02 11:48:00
6:08 AM,30.0,22.1,72,-9999,-9999.0,WNW,5.8,-,N/A,,Unknown,290,2013-02-02 12:08:00
6:28 AM,30.0,23.0,75,-9999,-9999.0,West,6.9,-,N/A,,Unknown,280,2013-02-02 12:28:00
6:48 AM,28.0,21.0,75,-9999,-9999.0,West,6.9,-,N/A,,Unknown,270,2013-02-02 12:48:00
7:08 AM,30.0,22.1,72,-9999,-9999.0,WNW,5.8,-,N/A,,Unknown,290,2013-02-02 13:08:00
7:28 AM,28.9,21.0,72,-9999,-9999.0,West,8.1,-,N/A,,Unknown,280,2013-02-02 13:28:00
7:48 AM,28.9,21.0,72,-9999,-9999.0,West,6.9,-,N/A,,Unknown,280,2013-02-02 13:48:00
8:08 AM,28.9,21.0,72,-9999,-9999.0,West,6.9,-,N/A,,Unknown,270,2013-02-02 14:08:00
8:28 AM,30.0,22.1,72,-9999,-9999.0,West,6.9,-,N/A,,Unknown,270,2013-02-02 14:28:00
8:48 AM,30.9,23.0,72,-9999,-9999.0,West,6.9,-,N/A,,Unknown,270,2013-02-02 14:48:00
9:08 AM,33.1,24.1,70,-9999,-9999.0,West,6.9,-,N/A,,Unknown,270,2013-02-02 15:08:00
9:28 AM,35.1,25.2,67,-9999,-9999.0,West,8.1,-,N/A,,Unknown,270,2013-02-02 15:28:00
9:48 AM,37.9,27.1,65,-9999,-9999.0,West,8.1,-,N/A,,Unknown,280,2013-02-02 15:48:00
10:08 AM,41.0,27.1,58,-9999,-9999.0,West,8.1,-,N/A,,Unknown,280,2013-02-02 16:08:00
10:28 AM,43.0,27.1,54,-9999,-9999.0,WNW,6.9,-,N/A,,Unknown,290,2013-02-02 16:28:00
10:48 AM,45.0,26.1,48,-9999,-9999.0,WNW,5.8,-,N/A,,Unknown,300,2013-02-02 16:48:00
11:08 AM,46.0,26.1,46,-9999,-9999.0,North,4.6,-,N/A,,Unknown,350,2013-02-02 17:08:00
11:28 AM,48.0,23.0,37,-9999,-9999.0,North,12.7,-,N/A,,Unknown,360,2013-02-02 17:28:00
11:48 AM,48.9,24.1,38,-9999,-9999.0,North,8.1,-,N/A,,Unknown,350,2013-02-02 17:48:00
12:08 PM,48.9,23.0,36,-9999,-9999.0,North,9.2,-,N/A,,Unknown,10,2013-02-02 18:08:00
12:28 PM,50.0,23.0,35,-9999,-9999.0,North,9.2,-,N/A,,Unknown,360,2013-02-02 18:28:00
12:48 PM,50.0,23.0,35,-9999,-9999.0,North,6.9,-,N/A,,Unknown,360,2013-02-02 18:48:00
1:08 PM,51.1,23.0,33,-9999,-9999.0,North,9.2,-,N/A,,Unknown,360,2013-02-02 19:08:00
1:28 PM,51.1,25.2,36,-9999,-9999.0,NNE,2.3,-,N/A,,Unknown,20,2013-02-02 19:28:00
1:48 PM,51.1,24.1,35,-9999,-9999.0,West,3.5,-,N/A,,Unknown,280,2013-02-02 19:48:00
2:08 PM,52.0,24.1,34,-9999,-9999.0,NW,3.5,-,N/A,,Unknown,310,2013-02-02 20:08:00
2:28 PM,52.0,23.0,32,-9999,-9999.0,WSW,4.6,-,N/A,,Unknown,250,2013-02-02 20:28:00
2:48 PM,53.1,24.1,32,-9999,-9999.0,WSW,1.2,-,N/A,,Unknown,250,2013-02-02 20:48:00
3:08 PM,53.1,24.1,32,-9999,-9999.0,WSW,3.5,-,N/A,,Unknown,240,2013-02-02 21:08:00
3:28 PM,53.1,23.0,31,-9999,-9999.0,WSW,4.6,-,N/A,,Unknown,250,2013-02-02 21:28:00
3:48 PM,54.0,23.0,30,-9999,-9999.0,SW,2.3,-,N/A,,Unknown,230,2013-02-02 21:48:00
4:08 PM,54.0,21.0,28,-9999,-9999.0,SSW,8.1,-,N/A,,Unknown,210,2013-02-02 22:08:00
4:28 PM,54.0,23.0,30,-9999,-9999.0,SW,3.5,-,N/A,,Unknown,230,2013-02-02 22:28:00
4:48 PM,55.0,22.1,28,-9999,-9999.0,South,4.6,-,N/A,,Unknown,190,2013-02-02 22:48:00
5:08 PM,55.0,21.0,27,-9999,-9999.0,SSW,8.1,-,N/A,,Unknown,210,2013-02-02 23:08:00
5:28 PM,53.1,21.0,29,-9999,-9999.0,SSW,6.9,-,N/A,,Unknown,200,2013-02-02 23:28:00
5:48 PM,51.1,20.1,30,-9999,-9999.0,SSW,6.9,-,N/A,,Unknown,200,2013-02-02 23:48:00
6:08 PM,48.0,20.1,33,-9999,-9999.0,South,8.1,-,N/A,,Unknown,190,2013-02-03 00:08:00
6:28 PM,48.0,19.0,32,-9999,-9999.0,South,6.9,-,N/A,,Unknown,190,2013-02-03 00:28:00
6:48 PM,44.1,19.0,37,-9999,-9999.0,South,6.9,-,N/A,,Unknown,180,2013-02-03 00:48:00
7:08 PM,43.0,18.1,37,-9999,-9999.0,South,5.8,-,N/A,,Unknown,180,2013-02-03 01:08:00
7:28 PM,44.1,18.1,35,-9999,-9999.0,South,8.1,-,N/A,,Unknown,190,2013-02-03 01:28:00
7:48 PM,45.0,19.0,36,-9999,-9999.0,South,8.1,-,N/A,,Unknown,190,2013-02-03 01:48:00
8:08 PM,44.1,17.1,34,-9999,-9999.0,SSW,10.4,-,N/A,,Unknown,210,2013-02-03 02:08:00
8:28 PM,45.0,18.1,34,-9999,-9999.0,SSW,11.5,-,N/A,,Unknown,200,2013-02-03 02:28:00
8:48 PM,46.0,18.1,33,-9999,-9999.0,SSW,11.5,-,N/A,,Unknown,210,2013-02-03 02:48:00
9:08 PM,44.1,18.1,35,-9999,-9999.0,SSW,10.4,-,N/A,,Unknown,210,2013-02-03 03:08:00
9:28 PM,43.0,19.0,38,-9999,-9999.0,SW,8.1,-,N/A,,Unknown,220,2013-02-03 03:28:00
9:48 PM,41.0,18.1,40,-9999,-9999.0,SSW,8.1,-,N/A,,Unknown,210,2013-02-03 03:48:00
10:08 PM,39.9,18.1,42,-9999,-9999.0,SW,8.1,-,N/A,,Unknown,220,2013-02-03 04:08:00
10:28 PM,41.0,18.1,40,-9999,-9999.0,SW,10.4,-,N/A,,Unknown,230,2013-02-03 04:28:00
10:48 PM,41.0,17.1,38,-9999,-9999.0,SW,12.7,-,N/A,,Unknown,220,2013-02-03 04:48:00
11:08 PM,39.0,18.1,43,-9999,-9999.0,SW,11.5,-,N/A,,Unknown,230,2013-02-03 05:08:00
11:28 PM,39.0,18.1,43,-9999,-9999.0,WSW,9.2,-,N/A,,Unknown,240,2013-02-03 05:28:00
11:48 PM,-9999,-9999,N/A,-9999,-9999.0,North,-9999.0,-,N/A,,Unknown,0,2013-02-03 05:48:00